Time;durP1;ratioP1;P1;durP2;ratioP2;P2;SDS_P1;SDS_P2;PMS_P1;PMS_P2;Temp;Humidity;BMP_temperature;BMP_pressure;BME280_temperature;BME280_humidity;BME280_pressure;Samples;Min_cycle;Max_cycle;Signal;HPM_P1;HPM_P2
2022/09/02 00:01:01;;;;;;;4.63;4.23;;;13.70;99.90;;;;;;4972293;28;20117;-78
2022/09/02 00:03:34;;;;;;;5.63;4.85;;;13.70;99.90;;;;;;4971116;28;20126;-78
2022/09/02 00:06:01;;;;;;;8.27;5.85;;;13.70;99.90;;;;;;4971577;28;20054;-79
2022/09/02 00:08:27;;;;;;;5.55;5.05;;;13.70;99.90;;;;;;4972159;28;20383;-78
2022/09/02 00:10:53;;;;;;;5.85;4.85;;;13.70;99.90;;;;;;4969658;28;20054;-79
2022/09/02 00:13:20;;;;;;;5.30;4.80;;;13.70;99.90;;;;;;4970888;28;20153;-78
2022/09/02 00:15:47;;;;;;;6.97;5.35;;;13.70;99.90;;;;;;4964574;28;20202;-78
2022/09/02 00:18:15;;;;;;;6.20;4.90;;;13.70;99.90;;;;;;4970319;28;20050;-78
2022/09/02 00:20:42;;;;;;;;;;;13.80;99.90;;;;;;4971990;28;20086;-78
2022/09/02 00:23:09;;;;;;;7.32;5.38;;;13.70;99.90;;;;;;4969248;28;20088;-80
2022/09/02 00:25:36;;;;;;;5.90;5.35;;;13.70;99.90;;;;;;4967382;28;20039;-78
2022/09/02 00:28:03;;;;;;;16.58;6.95;;;13.70;99.90;;;;;;4968475;28;20040;-78
2022/09/02 00:30:29;;;;;;;8.27;5.18;;;13.60;99.90;;;;;;4970206;28;20047;-79
2022/09/02 00:32:55;;;;;;;5.78;4.53;;;13.70;99.90;;;;;;4966510;28;20053;-80
2022/09/02 00:35:21;;;;;;;4.40;4.10;;;13.60;99.90;;;;;;4970762;28;20050;-79
2022/09/02 00:37:47;;;;;;;5.70;3.83;;;13.60;99.90;;;;;;4966008;28;20053;-78
2022/09/02 00:40:14;;;;;;;5.82;4.65;;;13.60;99.90;;;;;;4969921;28;20055;-79
2022/09/02 00:42:40;;;;;;;4.53;3.90;;;13.60;99.90;;;;;;4968878;28;20050;-79
2022/09/02 00:45:08;;;;;;;4.97;4.20;;;13.50;99.90;;;;;;4969905;28;20047;-79
2022/09/02 00:47:35;;;;;;;4.53;3.95;;;13.50;99.90;;;;;;4969841;28;20062;-79
2022/09/02 00:50:05;;;;;;;5.80;4.15;;;13.50;99.90;;;;;;4969751;28;20109;-79
2022/09/02 00:52:39;;;;;;;8.90;4.47;;;13.40;99.90;;;;;;4961990;28;20142;-80
2022/09/02 00:55:15;;;;;;;5.00;3.95;;;13.40;99.90;;;;;;4984664;28;20101;-80
2022/09/02 00:57:44;;;;;;;5.20;4.13;;;13.30;99.90;;;;;;4969660;28;20122;-79
2022/09/02 01:00:18;;;;;;;7.28;5.05;;;13.30;99.90;;;;;;4969118;28;20110;-79
2022/09/02 01:02:48;;;;;;;8.55;5.00;;;13.30;99.90;;;;;;4969129;28;20054;-79
2022/09/02 01:05:18;;;;;;;4.68;4.22;;;13.30;99.90;;;;;;4969226;28;20050;-79
2022/09/02 01:07:44;;;;;;;5.75;5.05;;;13.20;99.90;;;;;;4972510;28;20463;-79
2022/09/02 01:10:15;;;;;;;6.28;5.10;;;13.20;99.90;;;;;;4972007;28;20082;-79
2022/09/02 01:12:41;;;;;;;6.97;5.40;;;13.30;99.90;;;;;;4979392;28;20070;-79
2022/09/02 01:15:08;;;;;;;14.60;5.30;;;13.30;99.90;;;;;;4973424;28;20153;-79
2022/09/02 01:17:34;;;;;;;12.27;5.82;;;13.20;99.90;;;;;;4972666;28;20054;-79
2022/09/02 01:20:22;;;;;;;6.03;5.53;;;13.20;99.90;;;;;;4971887;28;20101;-78
2022/09/02 01:22:49;;;;;;;12.40;5.38;;;13.20;99.90;;;;;;4972311;28;20050;-79
2022/09/02 01:25:20;;;;;;;7.50;5.47;;;13.20;99.90;;;;;;4971643;28;20081;-78
2022/09/02 01:27:47;;;;;;;6.32;5.85;;;13.20;99.90;;;;;;4971598;28;20133;-79
2022/09/02 01:30:23;;;;;;;18.73;5.03;;;13.20;99.90;;;;;;4972413;28;20054;-79
2022/09/02 01:32:49;;;;;;;4.93;4.55;;;13.20;99.90;;;;;;4969405;28;20042;-80
2022/09/02 01:35:15;;;;;;;5.35;4.95;;;13.20;99.90;;;;;;4968081;28;20050;-79
2022/09/02 01:37:42;;;;;;;6.25;5.75;;;13.20;99.90;;;;;;4974749;28;20042;-79
2022/09/02 01:40:11;;;;;;;5.88;5.38;;;13.20;99.90;;;;;;4969902;28;20043;-78
2022/09/02 01:42:38;;;;;;;6.32;5.72;;;13.10;99.90;;;;;;4971886;28;20095;-79
2022/09/02 01:45:05;;;;;;;7.37;4.90;;;13.00;99.90;;;;;;4970612;28;20050;-79
2022/09/02 01:47:31;;;;;;;6.32;5.75;;;12.90;99.90;;;;;;4969361;28;20336;-79
2022/09/02 01:49:57;;;;;;;8.55;6.72;;;12.90;99.90;;;;;;4970944;28;20629;-78
2022/09/02 01:52:25;;;;;;;7.30;5.63;;;12.90;99.90;;;;;;4970324;28;20050;-79
2022/09/02 01:54:52;;;;;;;6.32;5.72;;;12.80;99.90;;;;;;4971594;28;20046;-79
2022/09/02 01:57:23;;;;;;;5.55;5.05;;;12.90;99.90;;;;;;4970765;28;20058;-78
2022/09/02 01:59:52;;;;;;;7.07;6.43;;;12.80;99.90;;;;;;4971933;28;20519;-78
2022/09/02 02:02:20;;;;;;;7.85;6.47;;;12.80;99.90;;;;;;4970353;28;20043;-78
2022/09/02 02:04:47;;;;;;;7.47;6.13;;;12.80;99.90;;;;;;4971183;28;20062;-78
2022/09/02 02:07:16;;;;;;;6.22;5.75;;;12.80;99.90;;;;;;4973846;28;20767;-79
2022/09/02 02:09:42;;;;;;;7.25;6.20;;;12.80;99.90;;;;;;4971368;28;20122;-78
2022/09/02 02:12:08;;;;;;;6.10;5.50;;;12.70;99.90;;;;;;4970728;28;20416;-78
2022/09/02 02:14:35;;;;;;;6.63;6.03;;;12.70;99.90;;;;;;4971115;28;20039;-78
2022/09/02 02:17:01;;;;;;;6.18;5.68;;;12.70;99.90;;;;;;4963144;28;20050;-79
2022/09/02 02:19:27;;;;;;;6.70;5.45;;;12.70;99.90;;;;;;4952375;28;20161;-79
2022/09/02 02:21:53;;;;;;;5.43;4.97;;;12.70;99.90;;;;;;4963870;28;20035;-79
2022/09/02 02:24:18;;;;;;;5.82;5.10;;;12.70;99.90;;;;;;4972005;28;20051;-80
2022/09/02 02:26:47;;;;;;;5.47;4.97;;;12.70;99.90;;;;;;4972457;28;20074;-79
2022/09/02 02:29:13;;;;;;;5.72;5.32;;;12.70;99.90;;;;;;4972412;28;20054;-79
2022/09/02 02:31:40;;;;;;;5.72;5.22;;;12.70;99.90;;;;;;4971866;28;20046;-79
2022/09/02 02:34:06;;;;;;;6.45;5.30;;;12.70;99.90;;;;;;4972932;28;20043;-78
2022/09/02 02:36:31;;;;;;;5.68;4.80;;;12.70;99.90;;;;;;4971930;28;20046;-79
2022/09/02 02:39:00;;;;;;;5.68;5.07;;;12.70;99.90;;;;;;4971284;28;20046;-79
2022/09/02 02:41:26;;;;;;;5.78;5.28;;;12.60;99.90;;;;;;4971004;28;20055;-79
2022/09/02 02:43:52;;;;;;;5.75;5.07;;;12.60;99.90;;;;;;4970305;28;20500;-79
2022/09/02 02:46:18;;;;;;;5.90;5.28;;;12.70;99.90;;;;;;4969695;28;20047;-79
2022/09/02 02:48:44;;;;;;;6.50;5.72;;;12.60;99.90;;;;;;4970087;28;20046;-78
2022/09/02 02:51:09;;;;;;;6.18;5.68;;;12.70;99.90;;;;;;4971623;28;20059;-79
2022/09/02 02:53:35;;;;;;;5.93;5.15;;;12.70;99.90;;;;;;4970349;28;20453;-79
2022/09/02 02:56:03;;;;;;;6.38;5.75;;;12.60;99.90;;;;;;4971239;28;20051;-78
2022/09/02 02:58:29;;;;;;;5.65;5.15;;;12.60;99.90;;;;;;4964413;28;20072;-78
2022/09/02 03:00:57;;;;;;;6.45;5.85;;;12.60;99.90;;;;;;4971056;28;20061;-78
2022/09/02 03:03:23;;;;;;;6.38;5.78;;;12.50;99.90;;;;;;4961564;28;20440;-79
2022/09/02 03:05:50;;;;;;;7.22;6.60;;;12.50;99.90;;;;;;4972500;28;20047;-79
2022/09/02 03:08:20;;;;;;;7.00;5.88;;;12.50;99.90;;;;;;4953237;28;20050;-78
2022/09/02 03:10:48;;;;;;;7.85;6.50;;;12.50;99.90;;;;;;4969089;28;20432;-78
2022/09/02 03:13:14;;;;;;;6.13;5.55;;;12.40;99.90;;;;;;4968437;28;20054;-78
2022/09/02 03:15:40;;;;;;;7.03;5.95;;;12.40;99.90;;;;;;4970820;28;20150;-79
2022/09/02 03:18:06;;;;;;;7.43;5.53;;;12.40;99.90;;;;;;4969395;28;20484;-78
2022/09/02 03:20:32;;;;;;;6.95;6.22;;;12.40;99.90;;;;;;4969236;28;20416;-78
2022/09/02 03:22:59;;;;;;;6.13;5.53;;;12.40;99.90;;;;;;4974145;28;20046;-78
2022/09/02 03:25:28;;;;;;;7.57;6.22;;;12.30;99.90;;;;;;4974982;28;20082;-79
2022/09/02 03:27:55;;;;;;;9.82;7.07;;;12.40;99.90;;;;;;4970525;28;20133;-78
2022/09/02 03:30:24;;;;;;;8.10;7.40;;;12.30;99.90;;;;;;4975388;28;20043;-78
2022/09/02 03:32:52;;;;;;;6.82;6.13;;;12.30;99.90;;;;;;4966041;28;20058;-78
2022/09/02 03:35:19;;;;;;;;;;;12.30;99.90;;;;;;4975783;28;20480;-79
2022/09/02 03:37:45;;;;;;;6.63;6.03;;;12.20;99.90;;;;;;4975733;28;19981;-78
2022/09/02 03:40:14;;;;;;;8.00;7.20;;;12.20;99.90;;;;;;4974059;28;20047;-78
2022/09/02 03:42:40;;;;;;;10.65;6.78;;;12.20;99.90;;;;;;4973770;28;20419;-78
2022/09/02 03:45:08;;;;;;;7.35;6.63;;;12.10;99.90;;;;;;4976906;28;20047;-78
2022/09/02 03:47:39;;;;;;;7.43;6.65;;;12.10;99.90;;;;;;4975165;28;20102;-78
2022/09/02 03:50:05;;;;;;;7.80;6.80;;;12.10;99.90;;;;;;4975243;28;20492;-78
2022/09/02 03:52:31;;;;;;;6.75;6.15;;;12.10;99.90;;;;;;4974446;28;20050;-79
2022/09/02 03:54:57;;;;;;;8.70;6.93;;;12.00;99.90;;;;;;4975024;28;20042;-78
2022/09/02 03:57:24;;;;;;;7.55;6.85;;;12.00;99.90;;;;;;4975488;28;20047;-79
2022/09/02 03:59:50;;;;;;;7.35;6.75;;;12.00;99.90;;;;;;4975638;28;20077;-78
2022/09/02 04:02:17;;;;;;;8.55;7.75;;;12.00;99.90;;;;;;4975335;28;20784;-78
2022/09/02 04:04:42;;;;;;;7.80;6.32;;;12.00;99.90;;;;;;4975149;28;20911;-78
2022/09/02 04:07:08;;;;;;;6.95;6.38;;;12.00;99.90;;;;;;4975960;28;20059;-78
2022/09/02 04:09:34;;;;;;;7.60;6.72;;;12.00;99.90;;;;;;4975200;28;20038;-78
2022/09/02 04:12:02;;;;;;;7.63;6.93;;;12.00;99.90;;;;;;4975982;28;20137;-78
2022/09/02 04:14:28;;;;;;;6.95;6.35;;;11.90;99.90;;;;;;4972976;28;20050;-79
2022/09/02 04:16:55;;;;;;;8.60;7.30;;;11.90;99.90;;;;;;4973196;28;20050;-78
2022/09/02 04:19:20;;;;;;;7.90;6.72;;;11.80;99.90;;;;;;4959157;28;20051;-80
2022/09/02 04:21:46;;;;;;;7.68;6.93;;;11.80;99.90;;;;;;4977064;28;20046;-79
2022/09/02 04:24:12;;;;;;;8.45;7.60;;;11.80;99.90;;;;;;4973633;28;20043;-79
2022/09/02 04:26:38;;;;;;;12.45;7.28;;;11.70;99.90;;;;;;4972954;28;20043;-79
2022/09/02 04:29:05;;;;;;;11.52;7.28;;;11.70;99.90;;;;;;4975195;28;20082;-83
2022/09/02 04:31:31;;;;;;;11.83;6.53;;;11.60;99.90;;;;;;4960601;28;20054;-77
2022/09/02 04:33:58;;;;;;;7.68;7.03;;;11.60;99.90;;;;;;4968962;28;20047;-78
2022/09/02 04:36:25;;;;;;;7.10;6.50;;;11.60;99.90;;;;;;4972350;28;20050;-78
2022/09/02 04:38:51;;;;;;;8.15;6.47;;;11.60;99.90;;;;;;4973685;28;20041;-79
2022/09/02 04:41:23;;;;;;;8.40;6.90;;;11.60;99.90;;;;;;4971725;28;20500;-79
2022/09/02 04:43:50;;;;;;;12.50;6.88;;;11.60;99.90;;;;;;4963540;28;20051;-78
2022/09/02 04:46:17;;;;;;;8.80;7.90;;;11.50;99.90;;;;;;4971639;28;20041;-78
2022/09/02 04:48:43;;;;;;;11.90;8.32;;;11.50;99.90;;;;;;4969554;28;20073;-78
2022/09/02 04:51:15;;;;;;;7.72;6.97;;;11.50;99.90;;;;;;4971109;28;20574;-79
2022/09/02 04:53:42;;;;;;;15.27;8.75;;;11.60;99.90;;;;;;4970776;28;20134;-79
2022/09/02 04:56:10;;;;;;;8.57;7.88;;;11.60;99.90;;;;;;4955668;28;20051;-79
2022/09/02 04:58:37;;;;;;;8.88;7.65;;;11.80;99.90;;;;;;4971863;28;20130;-79
2022/09/02 05:01:07;;;;;;;8.57;7.72;;;11.90;99.90;;;;;;4971466;28;20043;-79
2022/09/02 05:03:33;;;;;;;9.13;8.13;;;12.00;99.90;;;;;;4971197;28;20535;-79
2022/09/02 05:06:00;;;;;;;9.18;8.35;;;12.10;99.90;;;;;;4969376;28;20080;-79
2022/09/02 05:08:26;;;;;;;13.40;7.38;;;12.20;99.90;;;;;;4972269;28;20491;-79
2022/09/02 05:10:52;;;;;;;14.30;7.63;;;12.40;99.90;;;;;;4967109;28;20050;-79
2022/09/02 05:13:18;;;;;;;9.30;7.30;;;12.50;99.90;;;;;;4967769;28;20058;-79
2022/09/02 05:15:45;;;;;;;9.55;7.35;;;12.60;99.90;;;;;;4969881;28;20104;-79
2022/09/02 05:18:11;;;;;;;10.65;7.80;;;12.60;99.90;;;;;;4970883;28;20058;-79
2022/09/02 05:20:38;;;;;;;6.82;6.28;;;12.60;99.90;;;;;;4968138;28;20038;-79
2022/09/02 05:23:05;;;;;;;23.00;7.97;;;12.70;99.90;;;;;;4968710;28;20121;-79
2022/09/02 05:25:31;;;;;;;43.25;39.88;;;12.70;99.90;;;;;;4967380;28;20101;-79
2022/09/02 05:27:57;;;;;;;26.45;18.23;;;12.90;99.90;;;;;;4977263;28;20051;-79
2022/09/02 05:30:23;;;;;;;20.88;8.05;;;13.10;99.90;;;;;;4968175;28;20504;-79
2022/09/02 05:32:48;;;;;;;22.67;8.57;;;13.30;99.90;;;;;;4971685;28;20471;-78
2022/09/02 05:35:15;;;;;;;16.02;7.90;;;13.40;99.90;;;;;;4959499;28;20055;-79
2022/09/02 05:37:41;;;;;;;13.25;7.55;;;13.40;99.90;;;;;;4964534;28;20047;-76
2022/09/02 05:40:07;;;;;;;9.85;7.97;;;13.30;99.90;;;;;;4967662;28;20047;-78
2022/09/02 05:42:33;;;;;;;8.18;7.40;;;13.20;99.90;;;;;;4969108;28;20051;-79
2022/09/02 05:44:59;;;;;;;14.13;8.50;;;13.10;99.90;;;;;;4968607;28;20516;-78
2022/09/02 05:47:24;;;;;;;8.35;7.65;;;13.00;99.90;;;;;;4970412;28;20051;-78
2022/09/02 05:49:50;;;;;;;8.48;7.70;;;12.90;99.90;;;;;;4970263;28;20085;-77
2022/09/02 05:52:17;;;;;;;8.73;7.90;;;12.80;99.90;;;;;;4969989;28;20525;-77
2022/09/02 05:54:43;;;;;;;9.23;8.48;;;12.70;99.90;;;;;;4971316;28;20108;-77
2022/09/02 05:57:12;;;;;;;9.52;8.60;;;12.50;99.90;;;;;;4969455;28;20827;-79
2022/09/02 05:59:41;;;;;;;9.32;8.63;;;12.50;99.90;;;;;;4971313;28;20118;-78
2022/09/02 06:02:12;;;;;;;9.73;8.77;;;12.40;99.90;;;;;;4967320;28;20577;-77
2022/09/02 06:04:40;;;;;;;11.02;9.45;;;12.40;99.90;;;;;;4966421;28;20051;-79
2022/09/02 06:07:06;;;;;;;11.77;9.55;;;12.50;99.90;;;;;;4969631;28;20057;-78
2022/09/02 06:09:32;;;;;;;10.75;9.68;;;12.50;99.90;;;;;;4969774;28;20451;-77
2022/09/02 06:11:58;;;;;;;10.23;8.80;;;12.60;99.90;;;;;;4966878;28;20085;-77
2022/09/02 06:14:25;;;;;;;16.83;10.10;;;12.70;99.90;;;;;;4965492;28;20127;-78
2022/09/02 06:16:53;;;;;;;16.90;9.50;;;12.80;99.90;;;;;;4970653;28;20042;-78
2022/09/02 06:19:20;;;;;;;10.80;9.70;;;12.90;99.90;;;;;;4969483;28;20054;-77
2022/09/02 06:21:47;;;;;;;12.32;8.85;;;12.90;99.90;;;;;;4969591;28;20038;-77
2022/09/02 06:24:13;;;;;;;17.02;10.48;;;13.00;99.90;;;;;;4969503;28;20076;-77
2022/09/02 06:26:40;;;;;;;9.93;8.93;;;13.00;99.90;;;;;;4968762;28;20511;-77
2022/09/02 06:29:07;;;;;;;14.52;9.73;;;13.10;99.90;;;;;;4968925;28;20043;-78
2022/09/02 06:31:33;;;;;;;9.85;8.98;;;13.20;99.90;;;;;;4968267;28;20047;-78
2022/09/02 06:33:59;;;;;;;11.50;9.70;;;13.30;99.90;;;;;;4958009;28;20050;-78
2022/09/02 06:36:28;;;;;;;10.85;9.30;;;13.40;99.90;;;;;;4967257;28;20471;-77
2022/09/02 06:38:56;;;;;;;10.50;8.63;;;13.50;99.90;;;;;;4952986;28;20117;-76
2022/09/02 06:41:27;;;;;;;10.70;8.73;;;13.60;99.90;;;;;;4969964;28;20069;-78
2022/09/02 06:44:00;;;;;;;13.75;9.32;;;13.70;99.90;;;;;;4968955;28;20055;-77
2022/09/02 06:46:31;;;;;;;12.68;9.20;;;13.80;99.90;;;;;;4962648;28;20053;-76
2022/09/02 06:48:57;;;;;;;10.05;9.02;;;13.90;99.90;;;;;;4964426;28;20066;-77
2022/09/02 06:51:31;;;;;;;11.52;8.95;;;14.00;99.90;;;;;;4968530;28;20047;-77
2022/09/02 06:53:58;;;;;;;9.15;8.30;;;14.20;99.90;;;;;;4965986;28;20057;-77
2022/09/02 06:56:25;;;;;;;8.52;7.45;;;14.30;99.90;;;;;;4960024;28;20051;-78
2022/09/02 06:58:52;;;;;;;9.35;8.32;;;14.60;99.90;;;;;;4966713;28;20039;-76
2022/09/02 07:01:22;;;;;;;12.00;7.15;;;14.80;99.90;;;;;;4968860;28;20055;-77
2022/09/02 07:06:36;;;;;;;11.80;7.28;;;15.30;99.90;;;;;;4964623;28;20392;-75
2022/09/02 07:09:04;;;;;;;9.27;8.13;;;15.50;99.90;;;;;;4965402;28;20054;-77
2022/09/02 07:11:29;;;;;;;7.90;7.10;;;15.80;99.90;;;;;;4951685;28;20122;-76
2022/09/02 07:13:59;;;;;;;7.88;7.15;;;16.10;99.90;;;;;;4967400;28;20130;-77
2022/09/02 07:16:24;;;;;;;8.57;6.78;;;16.20;99.90;;;;;;4966633;28;20086;-78
2022/09/02 07:18:50;;;;;;;7.15;6.55;;;16.40;99.90;;;;;;4964757;28;20170;-77
2022/09/02 07:21:15;;;;;;;7.50;6.75;;;16.50;99.90;;;;;;4963252;28;20093;-77
2022/09/02 07:23:41;;;;;;;7.65;6.43;;;16.70;99.90;;;;;;4968323;28;20037;-78
2022/09/02 07:26:15;;;;;;;6.68;6.07;;;16.90;99.90;;;;;;4965867;28;20054;-80
2022/09/02 07:28:42;;;;;;;9.48;6.97;;;17.00;99.90;;;;;;4968331;28;20058;-77
2022/09/02 07:31:12;;;;;;;8.20;6.53;;;17.20;99.90;;;;;;4967917;28;20129;-76
2022/09/02 07:33:38;;;;;;;8.70;6.57;;;17.40;99.90;;;;;;4967241;28;20043;-75
2022/09/02 07:36:06;;;;;;;10.23;7.07;;;17.50;99.90;;;;;;4966236;28;20065;-75
2022/09/02 07:38:33;;;;;;;14.10;7.97;;;17.60;99.90;;;;;;4966072;28;20644;-69
2022/09/02 07:40:59;;;;;;;9.45;6.78;;;17.70;99.90;;;;;;4967480;28;20058;-69
2022/09/02 07:43:26;;;;;;;9.05;7.05;;;17.80;99.90;;;;;;4967507;28;20054;-69
2022/09/02 07:45:54;;;;;;;7.87;5.97;;;17.90;99.90;;;;;;4968353;28;20076;-70
2022/09/02 07:48:24;;;;;;;6.90;6.40;;;18.10;99.90;;;;;;4969006;28;20329;-70
2022/09/02 07:50:50;;;;;;;6.65;6.13;;;18.30;99.90;;;;;;4967842;28;20046;-69
2022/09/02 07:53:17;;;;;;;8.10;6.72;;;18.30;99.90;;;;;;4969439;28;20046;-69
2022/09/02 07:55:43;;;;;;;7.40;6.65;;;18.30;99.90;;;;;;4969536;28;20039;-69
2022/09/02 07:58:10;;;;;;;6.35;5.72;;;18.50;99.90;;;;;;4969402;28;20606;-70
2022/09/02 08:00:37;;;;;;;18.48;7.15;;;18.80;99.90;;;;;;4969517;28;20043;-69
2022/09/02 08:03:04;;;;;;;14.40;7.10;;;18.90;99.90;;;;;;4969312;28;20051;-69
2022/09/02 08:05:31;;;;;;;7.60;6.73;;;19.10;99.90;;;;;;4968824;28;20055;-69
2022/09/02 08:07:57;;;;;;;7.03;6.33;;;19.10;99.10;;;;;;4970705;28;20598;-69
2022/09/02 08:10:24;;;;;;;8.90;6.88;;;19.20;98.60;;;;;;4972621;28;20050;-70
2022/09/02 08:12:50;;;;;;;6.50;5.90;;;19.30;97.10;;;;;;4972441;28;20588;-69
2022/09/02 08:15:16;;;;;;;14.93;7.22;;;19.60;96.70;;;;;;4971993;28;20039;-70
2022/09/02 08:17:43;;;;;;;17.52;6.05;;;19.70;94.50;;;;;;4972699;28;20051;-69
2022/09/02 08:20:11;;;;;;;6.25;5.63;;;19.70;94.20;;;;;;4972863;28;20051;-68
2022/09/02 08:22:36;;;;;;;;;;;20.00;94.80;;;;;;4971599;28;20050;-68
2022/09/02 08:25:03;;;;;;;6.20;5.60;;;20.20;91.10;;;;;;4972315;28;19929;-68
2022/09/02 08:27:29;;;;;;;7.47;6.27;;;20.30;91.80;;;;;;4971638;28;20047;-69
2022/09/02 08:29:55;;;;;;;9.60;6.50;;;20.50;91.80;;;;;;4971628;28;20419;-68
2022/09/02 08:32:21;;;;;;;7.20;5.78;;;20.60;89.80;;;;;;4972331;28;20039;-68
2022/09/02 08:34:46;;;;;;;18.67;6.90;;;20.70;88.80;;;;;;4971437;28;20083;-68
2022/09/02 08:37:12;;;;;;;11.77;5.70;;;20.90;87.50;;;;;;4972291;28;20054;-68
2022/09/02 08:39:38;;;;;;;12.18;4.85;;;20.70;83.30;;;;;;4971633;28;20045;-68
2022/09/02 08:42:13;;;;;;;16.23;6.78;;;21.10;84.90;;;;;;4971397;28;20055;-68
2022/09/02 08:44:40;;;;;;;9.70;5.13;;;21.30;81.60;;;;;;4971762;28;20057;-68
2022/09/02 08:47:12;;;;;;;6.63;5.30;;;21.40;80.30;;;;;;4971226;28;20575;-70
2022/09/02 08:49:43;;;;;;;5.85;5.15;;;21.50;77.90;;;;;;4961831;28;20055;-69
2022/09/02 08:52:23;;;;;;;7.15;4.97;;;21.60;77.60;;;;;;4971620;28;20615;-69
2022/09/02 08:54:54;;;;;;;11.32;5.95;;;21.70;76.90;;;;;;4970780;28;20035;-69
2022/09/02 08:57:25;;;;;;;6.13;5.20;;;21.80;74.50;;;;;;4972097;28;20043;-69
2022/09/02 08:59:51;;;;;;;9.55;5.95;;;21.90;73.70;;;;;;4972150;28;20054;-68
2022/09/02 09:02:55;;;;;;;5.20;4.72;;;21.80;72.30;;;;;;4971899;28;20400;-68
2022/09/02 09:05:46;;;;;;;6.47;5.15;;;22.00;68.60;;;;;;4972195;28;20090;-68
2022/09/02 09:08:22;;;;;;;12.80;4.78;;;22.10;69.90;;;;;;4962793;28;20043;-69
2022/09/02 09:10:59;;;;;;;7.90;4.75;;;22.30;69.60;;;;;;4960939;28;21119;-69
2022/09/02 09:13:28;;;;;;;6.20;5.68;;;22.30;69.50;;;;;;4970549;28;20105;-68
2022/09/02 09:16:16;;;;;;;8.52;5.47;;;22.40;69.20;;;;;;4970537;28;20062;-70
2022/09/02 09:19:03;;;;;;;8.40;6.15;;;22.20;65.80;;;;;;4961156;28;20054;-69
2022/09/02 09:21:32;;;;;;;17.30;5.38;;;22.30;67.20;;;;;;4970189;28;20117;-68
2022/09/02 09:24:03;;;;;;;8.80;5.47;;;22.40;67.30;;;;;;4970829;28;20062;-69
2022/09/02 09:26:33;;;;;;;10.25;4.80;;;22.40;67.00;;;;;;4967088;28;20089;-68
2022/09/02 09:29:03;;;;;;;8.18;5.63;;;22.50;66.60;;;;;;4970763;28;20046;-68
2022/09/02 09:31:31;;;;;;;7.82;4.40;;;22.70;65.60;;;;;;4970354;28;20504;-69
2022/09/02 09:34:04;;;;;;;5.78;5.13;;;22.90;65.90;;;;;;4970383;28;20046;-68
2022/09/02 09:36:39;;;;;;;5.13;4.47;;;22.70;62.90;;;;;;4970647;28;20039;-69
2022/09/02 09:39:34;;;;;;;19.88;5.97;;;22.80;64.50;;;;;;4960369;28;20482;-68
2022/09/02 09:42:02;;;;;;;5.43;4.93;;;22.70;61.80;;;;;;4952255;28;20562;-69
2022/09/02 09:44:43;;;;;;;5.00;4.50;;;22.70;61.90;;;;;;4970852;28;20094;-69
2022/09/02 09:47:19;;;;;;;6.68;3.70;;;23.00;62.80;;;;;;4956887;28;20059;-68
2022/09/02 09:49:50;;;;;;;8.40;4.72;;;23.10;60.70;;;;;;4964391;28;20109;-69
2022/09/02 09:52:29;;;;;;;5.43;3.92;;;23.30;59.90;;;;;;4969703;28;20055;-69
2022/09/02 09:55:17;;;;;;;5.50;4.57;;;23.40;59.10;;;;;;4970944;28;20130;-68
2022/09/02 09:57:46;;;;;;;5.70;3.78;;;23.40;59.10;;;;;;4953300;28;20408;-68
2022/09/02 10:00:18;;;;;;;13.90;4.57;;;23.40;58.80;;;;;;4970190;28;20101;-68
2022/09/02 10:02:50;;;;;;;5.30;4.78;;;23.50;58.10;;;;;;4970522;28;20073;-69
2022/09/02 10:05:29;;;;;;;8.25;5.00;;;23.60;57.40;;;;;;4975137;28;20126;-69
2022/09/02 10:08:25;;;;;;;11.10;4.63;;;23.60;56.90;;;;;;4969668;28;20214;-68
2022/09/02 10:10:57;;;;;;;4.72;4.25;;;23.80;56.00;;;;;;4967685;28;20534;-70
2022/09/02 10:13:26;;;;;;;8.68;4.25;;;23.90;56.80;;;;;;4970737;28;20043;-69
2022/09/02 10:16:17;;;;;;;7.20;3.72;;;24.00;56.60;;;;;;4970584;28;20137;-69
2022/09/02 10:18:53;;;;;;;8.05;3.78;;;24.20;54.30;;;;;;4970306;28;20050;-69
2022/09/02 10:21:52;;;;;;;11.40;3.90;;;24.30;54.00;;;;;;4969214;28;20078;-68
2022/09/02 10:24:18;;;;;;;4.75;3.72;;;24.20;51.90;;;;;;4964899;28;20049;-68
2022/09/02 10:26:52;;;;;;;8.18;4.03;;;24.20;53.70;;;;;;4970437;28;20129;-68
2022/09/02 10:29:36;;;;;;;21.27;4.38;;;24.30;52.60;;;;;;4970819;28;20050;-69
2022/09/02 10:32:11;;;;;;;4.30;2.83;;;24.20;51.50;;;;;;4957528;28;20050;-68
2022/09/02 10:34:42;;;;;;;9.95;4.03;;;24.30;51.80;;;;;;4970072;28;20039;-69
2022/09/02 10:37:22;;;;;;;6.75;3.95;;;24.40;52.20;;;;;;4969848;28;20043;-69
2022/09/02 10:40:12;;;;;;;3.25;3.00;;;24.50;50.60;;;;;;4970194;28;20043;-68
2022/09/02 10:43:01;;;;;;;4.15;3.70;;;24.60;51.20;;;;;;4969987;28;20051;-68
2022/09/02 10:45:42;;;;;;;4.93;4.40;;;24.80;50.60;;;;;;4953542;28;20051;-68
2022/09/02 10:48:20;;;;;;;4.10;3.63;;;24.80;51.60;;;;;;4957490;28;20047;-69
2022/09/02 10:51:08;;;;;;;6.90;3.75;;;24.50;50.70;;;;;;4963995;28;20507;-68
2022/09/02 10:53:48;;;;;;;4.03;3.60;;;24.60;50.70;;;;;;4963100;28;20125;-69
2022/09/02 10:56:39;;;;;;;6.10;3.58;;;24.80;51.10;;;;;;4968607;28;20054;-69
2022/09/02 10:59:15;;;;;;;8.02;4.25;;;24.70;50.00;;;;;;4962454;28;20043;-69
2022/09/02 11:01:59;;;;;;;4.45;3.97;;;24.70;50.40;;;;;;4966165;28;20129;-69
2022/09/02 11:04:51;;;;;;;3.72;3.42;;;24.90;51.80;;;;;;4968568;28;20050;-69
2022/09/02 11:07:41;;;;;;;5.63;3.55;;;25.10;49.80;;;;;;4969914;28;20053;-69
2022/09/02 11:10:22;;;;;;;4.82;3.67;;;24.90;50.20;;;;;;4958446;28;20055;-69
2022/09/02 11:13:03;;;;;;;4.45;3.45;;;25.10;48.80;;;;;;4970040;28;20093;-69
2022/09/02 11:15:49;;;;;;;3.70;3.50;;;25.10;49.50;;;;;;4961013;28;20049;-69
2022/09/02 11:18:43;;;;;;;3.60;3.30;;;25.20;48.50;;;;;;4956561;28;20064;-68
2022/09/02 11:21:25;;;;;;;4.30;3.28;;;25.20;47.60;;;;;;4965865;28;20297;-69
2022/09/02 11:24:10;;;;;;;5.53;3.53;;;25.40;48.60;;;;;;4969929;28;20046;-69
2022/09/02 11:26:55;;;;;;;4.50;3.33;;;25.40;47.60;;;;;;4969149;28;20047;-69
2022/09/02 11:29:26;;;;;;;4.72;3.70;;;25.50;46.90;;;;;;4969502;28;20157;-69
2022/09/02 11:32:16;;;;;;;3.67;3.38;;;25.50;47.70;;;;;;4955921;28;20566;-69
2022/09/02 11:34:46;;;;;;;19.90;3.53;;;25.50;47.50;;;;;;4968690;28;20059;-69
2022/09/02 11:37:31;;;;;;;15.60;3.53;;;25.70;48.30;;;;;;4969636;28;20035;-69
2022/09/02 11:40:07;;;;;;;6.75;3.13;;;25.70;46.50;;;;;;4969504;28;20527;-69
2022/09/02 11:43:10;;;;;;;5.03;3.20;;;25.70;47.30;;;;;;4960213;28;20055;-69
2022/09/02 11:45:55;;;;;;;6.47;3.55;;;25.70;46.10;;;;;;4965816;28;20415;-69
2022/09/02 11:48:43;;;;;;;5.00;3.17;;;25.70;47.10;;;;;;4973378;28;20046;-68
2022/09/02 11:51:38;;;;;;;3.70;3.40;;;25.50;46.20;;;;;;4973166;28;20049;-68
2022/09/02 11:54:05;;;;;;;3.80;3.47;;;25.30;46.40;;;;;;4960977;28;20125;-69
2022/09/02 11:56:42;;;;;;;5.20;3.72;;;25.40;47.00;;;;;;4972102;28;20050;-68
2022/09/02 11:59:22;;;;;;;3.93;3.63;;;25.60;46.50;;;;;;4960465;28;20500;-69
2022/09/02 12:01:53;;;;;;;4.75;3.67;;;25.60;48.00;;;;;;4971688;28;20049;-68
2022/09/02 12:04:25;;;;;;;8.85;3.85;;;25.70;46.50;;;;;;4971214;28;20155;-68
2022/09/02 12:07:06;;;;;;;5.03;4.15;;;25.70;46.20;;;;;;4967172;28;20049;-68
2022/09/02 12:09:43;;;;;;;4.75;3.55;;;25.70;44.80;;;;;;4958578;28;20051;-68
2022/09/02 12:12:29;;;;;;;4.50;4.00;;;25.70;45.60;;;;;;4961709;28;20122;-69
2022/09/02 12:14:55;;;;;;;14.95;4.65;;;25.70;45.90;;;;;;4968446;28;20170;-68
2022/09/02 12:17:36;;;;;;;5.80;4.00;;;25.70;45.30;;;;;;4965212;28;20137;-69
2022/09/02 12:20:01;;;;;;;4.20;3.85;;;25.60;45.30;;;;;;4959361;28;20125;-69
2022/09/02 12:22:32;;;;;;;4.32;3.92;;;25.80;46.10;;;;;;4973070;28;20137;-69
2022/09/02 12:24:59;;;;;;;5.45;3.97;;;25.80;45.30;;;;;;4972324;28;20043;-69
2022/09/02 12:27:27;;;;;;;4.93;4.43;;;25.90;45.80;;;;;;4971103;28;20065;-69
2022/09/02 12:29:53;;;;;;;6.35;3.78;;;26.10;46.20;;;;;;4972107;28;20046;-68
2022/09/02 12:32:45;;;;;;;21.67;5.13;;;26.20;46.00;;;;;;4972454;28;20536;-69
2022/09/02 12:35:28;;;;;;;4.25;3.90;;;26.30;45.90;;;;;;4956228;28;20051;-69
2022/09/02 12:37:55;;;;;;;6.43;4.35;;;26.20;45.70;;;;;;4972060;28;20125;-69
2022/09/02 12:40:36;;;;;;;4.28;3.92;;;26.30;46.00;;;;;;4956216;28;20510;-69
2022/09/02 12:43:05;;;;;;;5.30;3.65;;;26.40;45.60;;;;;;4961092;28;20057;-69
2022/09/02 12:45:32;;;;;;;4.65;4.20;;;26.40;45.70;;;;;;4967654;28;20105;-68
2022/09/02 12:48:18;;;;;;;5.78;4.10;;;26.40;45.10;;;;;;4970606;28;20043;-69
2022/09/02 12:50:53;;;;;;;8.50;3.83;;;26.20;44.80;;;;;;4959886;28;20455;-68
2022/09/02 12:53:36;;;;;;;3.95;3.63;;;26.30;46.30;;;;;;4969891;28;20051;-68
2022/09/02 12:56:18;;;;;;;4.22;3.90;;;26.40;44.60;;;;;;4968787;28;20125;-68
2022/09/02 12:58:47;;;;;;;5.68;4.40;;;26.50;45.30;;;;;;4965424;28;20045;-68
2022/09/02 13:01:21;;;;;;;5.35;4.80;;;26.50;45.40;;;;;;4963473;28;20134;-69
2022/09/02 13:04:11;;;;;;;5.35;4.75;;;26.50;44.30;;;;;;4962650;28;20125;-68
2022/09/02 13:06:55;;;;;;;7.20;4.60;;;26.40;44.40;;;;;;4959902;28;20098;-68